Time;durP1;ratioP1;P1;durP2;ratioP2;P2;SDS_P1;SDS_P2;PMS_P1;PMS_P2;Temp;Humidity;BMP_temperature;BMP_pressure;BME280_temperature;BME280_humidity;BME280_pressure;Samples;Min_cycle;Max_cycle;Signal;HPM_P1;HPM_P2
2021/12/23 00:03:19;;;;;;;81.28;28.27;;;;;;;;;;8396099;28;20074;-76
2021/12/23 00:07:21;;;;;;;53.67;21.05;;;;;;;;;;8396000;28;20044;-78
2021/12/23 00:11:24;;;;;;;39.15;18.92;;;;;;;;;;8402176;28;20411;-74
2021/12/23 00:15:31;;;;;;;47.78;19.63;;;;;;;;;;8402204;28;20143;-76
2021/12/23 00:19:47;;;;;;;64.00;24.90;;;;;;;;;;8402464;28;20051;-74
2021/12/23 00:23:49;;;;;;;42.38;17.95;;;;;;;;;;8401907;28;20119;-76
2021/12/23 00:27:51;;;;;;;47.72;20.00;;;;;;;;;;8402152;28;20049;-74
2021/12/23 00:31:54;;;;;;;51.65;21.08;;;;;;;;;;8402151;28;20044;-75
2021/12/23 00:35:58;;;;;;;53.53;20.50;;;;;;;;;;8401191;28;20053;-76
2021/12/23 00:40:01;;;;;;;44.13;18.40;;;;;;;;;;8401889;28;20051;-74
2021/12/23 00:44:04;;;;;;;42.88;19.65;;;;;;;;;;8401285;28;20059;-76
2021/12/23 00:48:06;;;;;;;75.63;25.17;;;;;;;;;;8401081;28;20053;-77
2021/12/23 00:52:10;;;;;;;54.20;20.90;;;;;;;;;;8401447;28;20051;-74
2021/12/23 00:56:13;;;;;;;44.72;17.60;;;;;;;;;;8401365;28;20044;-76
2021/12/23 01:00:19;;;;;;;40.28;16.38;;;;;;;;;;8401408;28;20046;-74
2021/12/23 01:04:21;;;;;;;42.70;19.30;;;;;;;;;;8400776;28;20045;-77
2021/12/23 01:08:26;;;;;;;37.67;16.25;;;;;;;;;;8402715;28;20544;-74
2021/12/23 01:12:34;;;;;;;36.92;19.23;;;;;;;;;;8404786;28;20101;-75
2021/12/23 01:16:49;;;;;;;39.85;17.38;;;;;;;;;;8400860;28;20040;-74
2021/12/23 01:20:52;;;;;;;47.42;18.70;;;;;;;;;;8400001;28;20086;-74
2021/12/23 01:24:56;;;;;;;40.00;17.48;;;;;;;;;;8399972;28;20041;-76
2021/12/23 01:29:00;;;;;;;70.05;23.05;;;;;;;;;;8400319;28;20055;-77
2021/12/23 01:33:02;;;;;;;44.97;20.95;;;;;;;;;;8399708;28;20407;-74
2021/12/23 01:37:06;;;;;;;43.72;19.35;;;;;;;;;;8399802;28;20098;-74
2021/12/23 01:41:10;;;;;;;43.08;21.10;;;;;;;;;;8399613;28;20043;-73
2021/12/23 01:45:15;;;;;;;51.85;21.13;;;;;;;;;;8399884;28;20041;-74
2021/12/23 01:49:18;;;;;;;55.50;20.48;;;;;;;;;;8399689;28;20053;-74
2021/12/23 01:53:20;;;;;;;38.55;18.23;;;;;;;;;;8399119;28;20052;-74
2021/12/23 01:57:25;;;;;;;51.25;20.70;;;;;;;;;;8399239;28;20048;-74
2021/12/23 02:01:27;;;;;;;53.95;19.80;;;;;;;;;;8399012;28;20045;-74
2021/12/23 02:05:31;;;;;;;45.25;20.40;;;;;;;;;;8398792;28;20412;-77
2021/12/23 02:09:33;;;;;;;42.17;18.10;;;;;;;;;;8399030;28;20076;-73
2021/12/23 02:13:38;;;;;;;41.25;15.65;;;;;;;;;;8398892;28;20052;-74
2021/12/23 02:17:41;;;;;;;39.60;16.05;;;;;;;;;;8398342;28;20049;-75
2021/12/23 02:21:46;;;;;;;51.35;21.38;;;;;;;;;;8398262;28;20495;-76
2021/12/23 02:25:49;;;;;;;58.08;19.48;;;;;;;;;;8398483;28;20533;-74
2021/12/23 02:29:52;;;;;;;49.53;21.40;;;;;;;;;;8398912;28;20048;-74
2021/12/23 02:33:54;;;;;;;45.88;20.85;;;;;;;;;;8397364;28;20412;-77
2021/12/23 02:37:59;;;;;;;44.30;22.73;;;;;;;;;;8398188;28;20102;-74
2021/12/23 02:42:02;;;;;;;68.97;24.85;;;;;;;;;;8397724;28;20121;-74
2021/12/23 02:46:05;;;;;;;69.40;25.33;;;;;;;;;;8397994;28;20053;-74
2021/12/23 02:50:10;;;;;;;50.20;21.77;;;;;;;;;;8397842;28;20049;-76
2021/12/23 02:54:14;;;;;;;69.45;25.23;;;;;;;;;;8397374;28;20049;-74
2021/12/23 02:58:17;;;;;;;45.65;20.42;;;;;;;;;;8397727;28;20506;-74
2021/12/23 03:02:19;;;;;;;53.45;18.73;;;;;;;;;;8397675;28;20498;-74
2021/12/23 03:06:22;;;;;;;86.43;30.38;;;;;;;;;;8397667;28;20571;-74
2021/12/23 03:10:27;;;;;;;60.72;26.73;;;;;;;;;;8396960;28;20056;-76
2021/12/23 03:14:29;;;;;;;60.33;23.17;;;;;;;;;;8397539;28;20399;-75
2021/12/23 03:18:32;;;;;;;55.72;23.08;;;;;;;;;;8397494;28;20127;-77
2021/12/23 03:22:34;;;;;;;83.78;30.67;;;;;;;;;;8397108;28;20106;-75
2021/12/23 03:26:39;;;;;;;61.60;25.50;;;;;;;;;;8397313;28;20045;-74
2021/12/23 03:30:42;;;;;;;89.13;32.03;;;;;;;;;;8396695;28;20056;-74
2021/12/23 03:34:44;;;;;;;61.47;21.05;;;;;;;;;;8396422;28;20055;-75
2021/12/23 03:38:47;;;;;;;72.57;25.45;;;;;;;;;;8397113;28;20411;-74
2021/12/23 03:42:51;;;;;;;59.83;24.65;;;;;;;;;;8398967;28;20048;-73
2021/12/23 03:46:54;;;;;;;59.67;24.23;;;;;;;;;;8403241;28;20169;-73
2021/12/23 03:50:56;;;;;;;57.95;23.05;;;;;;;;;;8403356;28;20044;-75
2021/12/23 03:54:59;;;;;;;73.63;29.42;;;;;;;;;;8403438;28;20040;-74
2021/12/23 03:59:03;;;;;;;64.90;26.70;;;;;;;;;;8403252;28;20368;-77
2021/12/23 04:03:05;;;;;;;84.75;31.27;;;;;;;;;;8402525;28;20101;-74
2021/12/23 04:07:08;;;;;;;63.80;24.83;;;;;;;;;;8402929;28;20066;-74
2021/12/23 04:11:11;;;;;;;52.25;23.45;;;;;;;;;;8402246;28;20052;-74
2021/12/23 04:15:15;;;;;;;62.40;23.85;;;;;;;;;;8402537;28;20049;-76
2021/12/23 04:19:17;;;;;;;58.10;25.02;;;;;;;;;;8401985;28;20045;-75
2021/12/23 04:23:21;;;;;;;60.58;24.05;;;;;;;;;;8402374;28;20051;-74
2021/12/23 04:27:24;;;;;;;59.03;24.23;;;;;;;;;;8402206;28;20049;-73
2021/12/23 04:31:28;;;;;;;64.45;24.52;;;;;;;;;;8401636;28;20048;-76
2021/12/23 04:35:32;;;;;;;84.85;32.35;;;;;;;;;;8401464;28;20361;-76
2021/12/23 04:39:35;;;;;;;60.28;25.42;;;;;;;;;;8401569;28;20052;-74
2021/12/23 04:43:38;;;;;;;59.13;25.27;;;;;;;;;;8402005;28;20040;-75
2021/12/23 04:47:42;;;;;;;60.60;22.02;;;;;;;;;;8401732;28;20384;-75
2021/12/23 04:51:44;;;;;;;62.55;23.77;;;;;;;;;;8401094;28;20059;-74
2021/12/23 04:55:47;;;;;;;62.22;23.55;;;;;;;;;;8400319;28;20041;-74
2021/12/23 04:59:50;;;;;;;68.20;25.85;;;;;;;;;;8400918;28;20048;-73
2021/12/23 05:03:54;;;;;;;70.10;29.00;;;;;;;;;;8401256;28;20411;-77
2021/12/23 05:07:57;;;;;;;74.38;27.55;;;;;;;;;;8400732;28;20049;-74
2021/12/23 05:11:59;;;;;;;60.05;22.27;;;;;;;;;;8401006;28;20052;-74
2021/12/23 05:16:02;;;;;;;53.80;22.60;;;;;;;;;;8400897;28;20056;-75
2021/12/23 05:20:08;;;;;;;44.65;19.85;;;;;;;;;;8400849;28;20174;-76
2021/12/23 05:24:11;;;;;;;44.30;18.70;;;;;;;;;;8400255;28;20079;-73
2021/12/23 05:28:14;;;;;;;49.63;22.02;;;;;;;;;;8399903;28;20044;-73
2021/12/23 05:32:17;;;;;;;45.40;19.83;;;;;;;;;;8399833;28;20052;-76
2021/12/23 05:36:21;;;;;;;56.65;21.25;;;;;;;;;;8399583;28;20488;-74
2021/12/23 05:40:25;;;;;;;46.85;20.25;;;;;;;;;;8385848;28;20049;-74
2021/12/23 05:44:28;;;;;;;44.15;19.27;;;;;;;;;;8370762;28;20049;-74
2021/12/23 05:48:30;;;;;;;41.58;18.17;;;;;;;;;;8367717;28;20137;-75
2021/12/23 05:52:35;;;;;;;48.08;17.67;;;;;;;;;;8364872;28;20037;-76
2021/12/23 05:56:37;;;;;;;45.35;19.75;;;;;;;;;;8366581;28;20052;-76
2021/12/23 06:00:40;;;;;;;50.55;20.20;;;;;;;;;;8365954;28;20068;-74
2021/12/23 06:04:42;;;;;;;38.30;15.43;;;;;;;;;;8365693;28;20045;-74
2021/12/23 06:08:47;;;;;;;49.25;18.05;;;;;;;;;;8364412;28;20049;-74
2021/12/23 06:12:49;;;;;;;48.13;17.75;;;;;;;;;;8365585;28;20049;-74
2021/12/23 06:16:52;;;;;;;39.15;17.05;;;;;;;;;;8366305;28;20408;-74
2021/12/23 06:20:55;;;;;;;35.35;15.82;;;;;;;;;;8365720;28;20037;-74
2021/12/23 06:24:59;;;;;;;48.97;18.83;;;;;;;;;;8365206;28;20049;-75
2021/12/23 06:29:01;;;;;;;39.05;16.50;;;;;;;;;;8365667;28;20056;-74
2021/12/23 06:33:04;;;;;;;40.25;18.30;;;;;;;;;;8364843;28;20285;-76
2021/12/23 06:37:07;;;;;;;45.63;18.10;;;;;;;;;;8352332;28;20090;-76
2021/12/23 06:41:12;;;;;;;45.95;17.33;;;;;;;;;;8397672;28;20052;-74
2021/12/23 06:45:16;;;;;;;45.60;18.67;;;;;;;;;;8398150;28;20047;-76
2021/12/23 06:49:19;;;;;;;44.55;18.33;;;;;;;;;;8397507;28;20052;-75
2021/12/23 06:53:22;;;;;;;52.40;20.35;;;;;;;;;;8396761;28;20048;-75
2021/12/23 06:57:27;;;;;;;49.33;20.60;;;;;;;;;;8397866;28;20036;-76
2021/12/23 07:01:29;;;;;;;36.47;16.48;;;;;;;;;;8398157;28;20543;-77
2021/12/23 07:05:32;;;;;;;55.28;20.77;;;;;;;;;;8397733;28;20041;-75
2021/12/23 07:09:35;;;;;;;48.88;21.30;;;;;;;;;;8396992;28;20049;-78
2021/12/23 07:13:39;;;;;;;54.22;19.67;;;;;;;;;;8397540;28;20051;-75
2021/12/23 07:17:42;;;;;;;51.60;20.33;;;;;;;;;;8396543;28;20044;-74
2021/12/23 07:21:44;;;;;;;45.95;20.15;;;;;;;;;;8396799;28;20056;-75
2021/12/23 07:25:47;;;;;;;51.83;21.88;;;;;;;;;;8395921;28;20048;-76
2021/12/23 07:29:52;;;;;;;59.80;22.35;;;;;;;;;;8397024;28;20406;-75
2021/12/23 07:33:54;;;;;;;62.90;25.67;;;;;;;;;;8397138;28;20044;-74
2021/12/23 07:38:00;;;;;;;61.60;24.33;;;;;;;;;;8396621;28;20046;-75
2021/12/23 07:42:03;;;;;;;113.93;48.08;;;;;;;;;;8397062;28;20499;-75
2021/12/23 07:46:08;;;;;;;75.97;30.48;;;;;;;;;;8396464;28;20053;-76
2021/12/23 07:50:11;;;;;;;57.08;27.38;;;;;;;;;;8396183;28;20117;-74
2021/12/23 07:54:13;;;;;;;50.95;21.58;;;;;;;;;;8382807;28;20079;-75
2021/12/23 07:58:16;;;;;;;69.13;35.40;;;;;;;;;;8361246;28;20100;-74
2021/12/23 08:02:21;;;;;;;62.22;24.05;;;;;;;;;;8361410;28;20408;-78
2021/12/23 08:06:23;;;;;;;51.72;21.75;;;;;;;;;;8360591;28;20045;-79
2021/12/23 08:10:26;;;;;;;115.03;40.10;;;;;;;;;;8362009;28;20045;-75
2021/12/23 08:14:29;;;;;;;67.65;24.08;;;;;;;;;;8362842;28;20041;-77
2021/12/23 08:18:34;;;;;;;60.85;26.55;;;;;;;;;;8362698;28;20051;-78
2021/12/23 08:22:36;;;;;;;75.28;31.60;;;;;;;;;;8362658;28;20049;-80
2021/12/23 08:26:50;;;;;;;61.08;26.08;;;;;;;;;;8362705;28;20045;-76
2021/12/23 08:30:52;;;;;;;68.25;27.85;;;;;;;;;;8366301;28;20049;-78
2021/12/23 08:34:57;;;;;;;86.32;35.42;;;;;;;;;;8368385;28;20053;-76
2021/12/23 08:38:59;;;;;;;47.88;23.42;;;;;;;;;;8368450;28;20049;-74
2021/12/23 08:43:03;;;;;;;55.30;22.58;;;;;;;;;;8368379;28;20211;-76
2021/12/23 08:47:06;;;;;;;64.28;25.95;;;;;;;;;;8368709;28;20049;-75
2021/12/23 08:51:11;;;;;;;54.33;21.73;;;;;;;;;;8368131;28;20522;-77
2021/12/23 08:55:15;;;;;;;51.53;19.55;;;;;;;;;;8368556;28;20052;-76
2021/12/23 08:59:18;;;;;;;60.17;25.40;;;;;;;;;;8367898;28;20052;-76
2021/12/23 09:03:21;;;;;;;107.55;41.95;;;;;;;;;;8379824;28;20051;-78
2021/12/23 09:07:27;;;;;;;77.25;28.13;;;;;;;;;;8394409;28;20135;-80
2021/12/23 09:11:30;;;;;;;71.90;26.88;;;;;;;;;;8391989;28;20044;-76
2021/12/23 09:15:34;;;;;;;90.28;37.13;;;;;;;;;;8372023;28;20110;-79
2021/12/23 09:19:38;;;;;;;79.38;32.60;;;;;;;;;;8395647;28;20049;-80
2021/12/23 09:23:45;;;;;;;60.33;28.58;;;;;;;;;;8399358;28;20098;-76
2021/12/23 09:28:06;;;;;;;72.88;32.63;;;;;;;;;;8398670;28;20049;-76
2021/12/23 09:36:38;;;;;;;116.55;47.40;;;;;;;;;;8399125;28;20106;-78
2021/12/23 09:40:45;;;;;;;66.80;28.95;;;;;;;;;;8399397;28;20053;-75
2021/12/23 09:44:49;;;;;;;69.25;31.90;;;;;;;;;;8398912;28;20064;-79
2021/12/23 09:48:54;;;;;;;74.38;26.83;;;;;;;;;;8398974;28;20047;-76
2021/12/23 09:53:12;;;;;;;40.08;17.65;;;;;;;;;;8398613;28;20458;-76
2021/12/23 09:57:25;;;;;;;72.93;29.23;;;;;;;;;;8398835;28;20120;-74
2021/12/23 10:01:34;;;;;;;80.80;31.23;;;;;;;;;;8398230;28;20072;-76
2021/12/23 10:05:41;;;;;;;43.58;18.83;;;;;;;;;;8398486;28;20054;-77
2021/12/23 10:09:51;;;;;;;53.10;19.50;;;;;;;;;;8398246;28;20040;-75
2021/12/23 10:32:27;;;;;;;56.97;21.23;;;;;;;;;;8361639;28;20132;-76
2021/12/23 10:40:55;;;;;;;40.88;19.30;;;;;;;;;;8397887;28;20052;-76
2021/12/23 10:45:07;;;;;;;49.25;23.65;;;;;;;;;;8396688;28;20079;-75
2021/12/23 10:49:32;;;;;;;76.70;32.35;;;;;;;;;;8397281;28;20068;-76
2021/12/23 10:58:15;;;;;;;49.03;21.77;;;;;;;;;;8375905;28;20044;-79
2021/12/23 11:02:24;;;;;;;49.00;22.60;;;;;;;;;;8394726;28;20072;-76
2021/12/23 11:06:34;;;;;;;54.65;29.38;;;;;;;;;;8394687;28;20040;-77
2021/12/23 11:10:56;;;;;;;45.63;20.40;;;;;;;;;;8396574;28;20472;-76
2021/12/23 11:37:15;;;;;;;43.38;20.80;;;;;;;;;;8396748;28;20153;-74
2021/12/23 11:41:33;;;;;;;44.45;20.25;;;;;;;;;;8396663;28;20502;-77
2021/12/23 11:45:39;;;;;;;39.58;17.73;;;;;;;;;;8396472;28;20496;-75
2021/12/23 11:49:44;;;;;;;36.20;16.20;;;;;;;;;;8396829;28;20514;-73
2021/12/23 11:53:48;;;;;;;46.53;19.27;;;;;;;;;;8391017;28;20052;-76
2021/12/23 11:57:55;;;;;;;52.13;23.92;;;;;;;;;;8373504;28;20182;-76
2021/12/23 12:01:58;;;;;;;53.35;19.92;;;;;;;;;;8396649;28;20045;-75
2021/12/23 12:06:17;;;;;;;34.00;15.57;;;;;;;;;;8372293;28;20037;-76
2021/12/23 12:10:23;;;;;;;42.60;17.33;;;;;;;;;;8399739;28;20047;-75
2021/12/23 12:14:43;;;;;;;46.40;18.00;;;;;;;;;;8390881;28;20048;-76
2021/12/23 12:18:46;;;;;;;47.15;21.30;;;;;;;;;;8398728;28;20127;-76
2021/12/23 12:23:03;;;;;;;45.13;15.95;;;;;;;;;;8398456;28;20064;-76
2021/12/23 12:27:11;;;;;;;46.60;19.77;;;;;;;;;;8400675;28;20048;-74
2021/12/23 12:31:19;;;;;;;42.30;15.90;;;;;;;;;;8401153;28;20060;-74
2021/12/23 12:35:24;;;;;;;57.55;28.98;;;;;;;;;;8400947;28;20057;-76
2021/12/23 12:39:33;;;;;;;77.57;41.63;;;;;;;;;;8397337;28;20541;-77
2021/12/23 12:43:55;;;;;;;65.95;26.25;;;;;;;;;;8399425;28;20064;-76
2021/12/23 12:48:01;;;;;;;46.67;21.83;;;;;;;;;;8399336;28;20055;-75
2021/12/23 12:52:32;;;;;;;62.42;27.98;;;;;;;;;;8399056;28;20094;-79
2021/12/23 12:56:38;;;;;;;52.42;27.63;;;;;;;;;;8399606;28;20048;-76
2021/12/23 13:00:43;;;;;;;44.00;19.02;;;;;;;;;;8400970;28;20052;-75
2021/12/23 13:04:52;;;;;;;41.22;19.05;;;;;;;;;;8392056;28;20072;-75
2021/12/23 13:09:05;;;;;;;56.55;26.02;;;;;;;;;;8399342;28;20045;-74
2021/12/23 13:13:11;;;;;;;45.67;20.48;;;;;;;;;;8388107;28;20048;-77
2021/12/23 13:17:14;;;;;;;39.47;19.23;;;;;;;;;;8366912;28;20541;-76
2021/12/23 13:21:23;;;;;;;38.15;18.55;;;;;;;;;;8366773;28;20462;-75
2021/12/23 13:25:26;;;;;;;42.20;18.73;;;;;;;;;;8366886;28;20378;-77
2021/12/23 13:29:31;;;;;;;20.23;11.48;;;;;;;;;;8366584;28;20052;-76
2021/12/23 13:33:45;;;;;;;44.67;23.27;;;;;;;;;;8366667;28;20053;-75
2021/12/23 13:37:50;;;;;;;33.78;15.18;;;;;;;;;;8366328;28;20049;-78
2021/12/23 13:41:54;;;;;;;44.33;19.73;;;;;;;;;;8365509;28;20041;-74
2021/12/23 13:46:04;;;;;;;36.33;15.40;;;;;;;;;;8365083;28;20443;-75
2021/12/23 13:50:08;;;;;;;41.50;15.23;;;;;;;;;;8364835;28;20072;-76
2021/12/23 13:54:15;;;;;;;68.65;27.33;;;;;;;;;;8364900;28;20057;-76
2021/12/23 13:58:24;;;;;;;89.18;30.42;;;;;;;;;;8364549;28;20041;-76
2021/12/23 14:02:29;;;;;;;52.15;21.75;;;;;;;;;;8365003;28;20472;-75
2021/12/23 14:06:32;;;;;;;37.17;14.27;;;;;;;;;;8365250;28;20442;-76
2021/12/23 14:10:38;;;;;;;43.75;16.02;;;;;;;;;;8363853;28;20041;-76
2021/12/23 14:15:00;;;;;;;61.22;17.15;;;;;;;;;;8364193;28;20087;-76
2021/12/23 14:19:21;;;;;;;49.08;19.00;;;;;;;;;;8363962;28;20045;-74
2021/12/23 14:23:26;;;;;;;34.75;12.48;;;;;;;;;;8363596;28;20051;-76
2021/12/23 14:27:30;;;;;;;41.75;15.05;;;;;;;;;;8363931;28;20044;-75
2021/12/23 14:31:34;;;;;;;42.53;15.48;;;;;;;;;;8364830;28;20110;-75
2021/12/23 14:35:39;;;;;;;59.08;20.77;;;;;;;;;;8364417;28;20427;-74
2021/12/23 14:39:41;;;;;;;51.90;17.50;;;;;;;;;;8370506;28;20044;-74
2021/12/23 14:44:04;;;;;;;48.88;17.95;;;;;;;;;;8373006;28;20044;-75
2021/12/23 14:48:13;;;;;;;40.53;17.20;;;;;;;;;;8370418;28;20122;-74
2021/12/23 14:52:18;;;;;;;43.08;15.73;;;;;;;;;;8376009;28;20037;-74
2021/12/23 14:56:21;;;;;;;35.92;14.40;;;;;;;;;;8397429;28;20074;-74
2021/12/23 15:00:28;;;;;;;37.40;16.42;;;;;;;;;;8397291;28;20493;-75
2021/12/23 15:04:30;;;;;;;39.28;14.90;;;;;;;;;;8397276;28;20198;-75
2021/12/23 15:08:33;;;;;;;76.20;26.02;;;;;;;;;;8396722;28;20504;-76
2021/12/23 15:12:37;;;;;;;50.35;19.83;;;;;;;;;;8395803;28;20075;-75
2021/12/23 15:16:42;;;;;;;47.92;18.00;;;;;;;;;;8397303;28;20146;-75
2021/12/23 15:20:49;;;;;;;64.00;22.45;;;;;;;;;;8396941;28;20105;-74
2021/12/23 15:25:16;;;;;;;54.53;21.42;;;;;;;;;;8384389;28;20056;-74
2021/12/23 15:29:28;;;;;;;37.83;15.73;;;;;;;;;;8363325;28;20037;-77
2021/12/23 15:33:34;;;;;;;110.90;26.08;;;;;;;;;;8362721;28;20061;-75
2021/12/23 15:37:42;;;;;;;42.90;16.65;;;;;;;;;;8362725;28;20052;-74
2021/12/23 15:41:45;;;;;;;37.13;14.60;;;;;;;;;;8370331;28;20041;-74
2021/12/23 15:45:49;;;;;;;81.75;30.58;;;;;;;;;;8370294;28;20045;-74
2021/12/23 15:49:56;;;;;;;49.03;18.67;;;;;;;;;;8369584;28;20385;-74
2021/12/23 15:54:02;;;;;;;53.78;22.60;;;;;;;;;;8369357;28;20041;-75
2021/12/23 15:58:08;;;;;;;44.78;14.55;;;;;;;;;;8383782;28;20048;-76
2021/12/23 16:02:11;;;;;;;60.55;21.30;;;;;;;;;;8402840;28;20124;-78
2021/12/23 16:10:42;;;;;;;55.00;18.15;;;;;;;;;;8402011;28;20094;-75
2021/12/23 16:14:46;;;;;;;45.22;19.27;;;;;;;;;;8385349;28;20052;-74
2021/12/23 16:18:49;;;;;;;43.13;19.25;;;;;;;;;;8401830;28;20048;-77
2021/12/23 16:22:54;;;;;;;34.58;14.48;;;;;;;;;;8401788;28;20048;-76
2021/12/23 16:26:58;;;;;;;31.88;13.57;;;;;;;;;;8401569;28;20075;-75
2021/12/23 16:31:03;;;;;;;76.95;30.17;;;;;;;;;;8401202;28;20558;-74
2021/12/23 16:35:14;;;;;;;73.90;28.50;;;;;;;;;;8400655;28;20116;-75
2021/12/23 16:39:21;;;;;;;53.65;21.52;;;;;;;;;;8401145;28;20159;-76
2021/12/23 16:43:27;;;;;;;74.18;29.05;;;;;;;;;;8401117;28;20046;-75
2021/12/23 16:47:31;;;;;;;35.85;14.85;;;;;;;;;;8401400;28;20040;-75
2021/12/23 16:51:34;;;;;;;44.38;18.33;;;;;;;;;;8399491;28;20048;-75
2021/12/23 17:00:13;;;;;;;31.35;13.35;;;;;;;;;;8400518;28;20075;-74
2021/12/23 17:04:21;;;;;;;51.35;21.58;;;;;;;;;;8399936;28;20499;-74
2021/12/23 17:08:25;;;;;;;60.95;25.58;;;;;;;;;;8383947;28;20068;-75
2021/12/23 17:12:32;;;;;;;59.05;25.45;;;;;;;;;;8366992;28;20045;-75
2021/12/23 17:16:37;;;;;;;46.25;19.50;;;;;;;;;;8367449;28;20415;-74
2021/12/23 17:25:05;;;;;;;63.78;25.42;;;;;;;;;;8381399;28;20048;-76
2021/12/23 17:29:10;;;;;;;43.78;20.90;;;;;;;;;;8400159;28;20044;-75
2021/12/23 17:33:14;;;;;;;36.38;14.95;;;;;;;;;;8399028;28;20052;-78
2021/12/23 17:37:18;;;;;;;36.80;15.88;;;;;;;;;;8398207;28;20503;-75
2021/12/23 17:41:21;;;;;;;32.05;14.38;;;;;;;;;;8399597;28;20041;-73
2021/12/23 17:45:26;;;;;;;37.63;14.70;;;;;;;;;;8400061;28;20051;-77
2021/12/23 17:49:29;;;;;;;39.83;15.13;;;;;;;;;;8399537;28;20447;-74
2021/12/23 17:53:33;;;;;;;34.70;14.68;;;;;;;;;;8380052;28;20492;-74
2021/12/23 17:57:36;;;;;;;39.67;17.63;;;;;;;;;;8377448;28;20049;-73
2021/12/23 18:01:41;;;;;;;37.92;14.27;;;;;;;;;;8365872;28;20049;-73
2021/12/23 18:05:46;;;;;;;34.28;13.82;;;;;;;;;;8365895;28;20403;-75
2021/12/23 18:09:49;;;;;;;37.13;15.68;;;;;;;;;;8366173;28;20045;-74
2021/12/23 18:13:53;;;;;;;43.70;15.30;;;;;;;;;;8365453;28;20144;-73
2021/12/23 18:17:57;;;;;;;53.03;20.88;;;;;;;;;;8369869;28;20045;-74
2021/12/23 18:22:00;;;;;;;42.95;19.17;;;;;;;;;;8372348;28;20415;-74
2021/12/23 18:26:03;;;;;;;36.28;16.20;;;;;;;;;;8378860;28;20048;-74
2021/12/23 18:30:11;;;;;;;41.10;15.40;;;;;;;;;;8382476;28;20136;-74
2021/12/23 18:34:17;;;;;;;39.67;17.73;;;;;;;;;;8370200;28;20045;-78
2021/12/23 18:38:24;;;;;;;42.47;15.43;;;;;;;;;;8364915;28;20072;-75
2021/12/23 18:42:33;;;;;;;41.45;16.75;;;;;;;;;;8364682;28;20106;-75
2021/12/23 18:46:37;;;;;;;71.13;28.98;;;;;;;;;;8364628;28;20045;-74
2021/12/23 18:50:42;;;;;;;89.90;33.70;;;;;;;;;;8364565;28;20044;-74
2021/12/23 18:54:45;;;;;;;50.95;18.45;;;;;;;;;;8364897;28;20071;-74
2021/12/23 18:58:48;;;;;;;98.75;35.30;;;;;;;;;;8364327;28;20094;-74
2021/12/23 19:03:07;;;;;;;34.10;15.57;;;;;;;;;;8364589;28;20049;-74
2021/12/23 19:07:12;;;;;;;52.38;19.92;;;;;;;;;;8364156;28;20056;-74
2021/12/23 19:11:16;;;;;;;37.55;16.98;;;;;;;;;;8363927;28;20044;-74
2021/12/23 19:15:19;;;;;;;50.30;22.45;;;;;;;;;;8370507;28;20071;-74
2021/12/23 19:19:22;;;;;;;56.55;28.40;;;;;;;;;;8396980;28;20048;-74
2021/12/23 19:23:27;;;;;;;42.70;19.83;;;;;;;;;;8397373;28;20044;-75
2021/12/23 19:27:29;;;;;;;37.55;17.17;;;;;;;;;;8396924;28;20040;-74
2021/12/23 19:31:34;;;;;;;37.50;17.90;;;;;;;;;;8396655;28;20110;-75
2021/12/23 19:35:36;;;;;;;50.30;20.55;;;;;;;;;;8396618;28;20057;-75
2021/12/23 19:39:41;;;;;;;49.85;22.63;;;;;;;;;;8379839;28;20472;-74
2021/12/23 19:43:45;;;;;;;49.42;21.83;;;;;;;;;;8374558;28;20446;-75
2021/12/23 19:47:48;;;;;;;44.90;22.60;;;;;;;;;;8370515;28;20381;-76
2021/12/23 19:51:52;;;;;;;49.70;22.08;;;;;;;;;;8363305;28;20098;-74
2021/12/23 19:55:57;;;;;;;45.60;20.33;;;;;;;;;;8363216;28;20480;-76
2021/12/23 20:00:01;;;;;;;52.08;22.73;;;;;;;;;;8362526;28;20044;-75
2021/12/23 20:04:05;;;;;;;70.65;29.45;;;;;;;;;;8363155;28;20488;-75
2021/12/23 20:08:08;;;;;;;80.13;34.55;;;;;;;;;;8362524;28;20041;-75
2021/12/23 20:12:13;;;;;;;68.20;29.48;;;;;;;;;;8362247;28;20480;-74
2021/12/23 20:16:17;;;;;;;75.70;31.38;;;;;;;;;;8362508;28;20049;-75
2021/12/23 20:20:21;;;;;;;70.90;32.25;;;;;;;;;;8362343;28;20053;-74
2021/12/23 20:24:24;;;;;;;52.92;21.35;;;;;;;;;;8362773;28;20045;-77
2021/12/23 20:28:30;;;;;;;51.30;20.52;;;;;;;;;;8367756;28;20049;-76
2021/12/23 20:32:35;;;;;;;109.68;49.15;;;;;;;;;;8368738;28;20234;-75
2021/12/23 20:36:39;;;;;;;48.88;22.88;;;;;;;;;;8367956;28;20099;-75
2021/12/23 20:40:42;;;;;;;67.53;29.17;;;;;;;;;;8368149;28;20041;-75
2021/12/23 20:44:48;;;;;;;81.28;31.38;;;;;;;;;;8367681;28;20070;-75
2021/12/23 20:48:56;;;;;;;70.88;29.52;;;;;;;;;;8367819;28;20106;-76
2021/12/23 20:53:01;;;;;;;58.97;24.80;;;;;;;;;;8367500;28;20056;-75
2021/12/23 20:57:05;;;;;;;63.45;30.48;;;;;;;;;;8367811;28;20068;-74
2021/12/23 21:01:13;;;;;;;61.33;24.48;;;;;;;;;;8367555;28;20115;-77
2021/12/23 21:05:17;;;;;;;71.00;27.65;;;;;;;;;;8367804;28;20049;-79
2021/12/23 21:09:20;;;;;;;54.83;23.17;;;;;;;;;;8367254;28;20049;-78
2021/12/23 21:13:27;;;;;;;46.08;21.13;;;;;;;;;;8366992;28;20075;-75
2021/12/23 21:17:31;;;;;;;62.47;27.73;;;;;;;;;;8387605;28;20095;-75
2021/12/23 21:21:36;;;;;;;68.22;27.15;;;;;;;;;;8397118;28;20115;-76
2021/12/23 21:25:40;;;;;;;51.08;24.02;;;;;;;;;;8395938;28;20044;-75
2021/12/23 21:29:43;;;;;;;63.92;27.35;;;;;;;;;;8394344;28;20041;-76
2021/12/23 21:33:48;;;;;;;49.80;23.77;;;;;;;;;;8397899;28;20499;-75
2021/12/23 21:37:51;;;;;;;65.13;29.98;;;;;;;;;;8399408;28;20060;-75
2021/12/23 21:41:56;;;;;;;85.72;40.35;;;;;;;;;;8398798;28;20502;-76
2021/12/23 21:45:59;;;;;;;84.95;34.90;;;;;;;;;;8399614;28;20476;-76
2021/12/23 21:50:05;;;;;;;57.72;27.40;;;;;;;;;;8399800;28;20417;-73
2021/12/23 21:54:14;;;;;;;50.33;24.00;;;;;;;;;;8396470;28;20074;-75
2021/12/23 21:58:17;;;;;;;38.10;19.70;;;;;;;;;;8397344;28;20377;-74
2021/12/23 22:02:20;;;;;;;48.60;19.98;;;;;;;;;;8398463;28;20052;-76
2021/12/23 22:06:25;;;;;;;63.45;27.48;;;;;;;;;;8399199;28;20471;-74
2021/12/23 22:10:28;;;;;;;55.20;23.40;;;;;;;;;;8398672;28;20166;-74
2021/12/23 22:14:30;;;;;;;68.03;26.30;;;;;;;;;;8397762;28;20143;-74
2021/12/23 22:18:33;;;;;;;101.97;47.22;;;;;;;;;;8397687;28;20090;-73
2021/12/23 22:22:39;;;;;;;59.17;25.92;;;;;;;;;;8397943;28;20407;-73
2021/12/23 22:26:41;;;;;;;95.38;40.58;;;;;;;;;;8398680;28;20045;-75
2021/12/23 22:30:44;;;;;;;89.10;36.45;;;;;;;;;;8397414;28;20412;-76
2021/12/23 22:34:47;;;;;;;65.68;25.95;;;;;;;;;;8397960;28;20066;-74
2021/12/23 22:38:51;;;;;;;123.97;44.00;;;;;;;;;;8397839;28;20067;-72
2021/12/23 22:42:54;;;;;;;110.35;36.65;;;;;;;;;;8397469;28;20423;-75
2021/12/23 22:46:57;;;;;;;72.55;29.50;;;;;;;;;;8396740;28;20388;-75
2021/12/23 22:50:59;;;;;;;55.83;22.40;;;;;;;;;;8396710;28;20098;-75
2021/12/23 22:55:04;;;;;;;61.90;26.85;;;;;;;;;;8397082;28;20446;-80
2021/12/23 22:59:06;;;;;;;74.05;34.75;;;;;;;;;;8395462;28;20109;-75
2021/12/23 23:03:12;;;;;;;59.03;26.73;;;;;;;;;;8389807;28;20153;-80
2021/12/23 23:07:15;;;;;;;50.47;20.27;;;;;;;;;;8390956;28;20045;-76
2021/12/23 23:11:22;;;;;;;69.78;27.30;;;;;;;;;;8395827;28;20145;-77
2021/12/23 23:16:38;;;;;;;55.33;25.48;;;;;;;;;;8395527;28;20446;-73
2021/12/23 23:19:49;;;;;;;53.55;22.55;;;;;;;;;;8396744;28;20480;-78
2021/12/23 23:23:59;;;;;;;72.85;33.03;;;;;;;;;;8396511;28;20052;-76
2021/12/23 23:35:13;;;;;;;57.00;25.08;;;;;;;;;;8396966;28;20045;-75
2021/12/23 23:37:04;;;;;;;60.70;28.30;;;;;;;;;;8396581;28;20087;-76
2021/12/23 23:41:06;;;;;;;62.38;27.65;;;;;;;;;;8396082;28;20051;-76
2021/12/23 23:45:10;;;;;;;63.53;26.38;;;;;;;;;;8396109;28;20051;-77
2021/12/23 23:49:13;;;;;;;55.65;23.15;;;;;;;;;;8396030;28;20048;-77
2021/12/23 23:53:20;;;;;;;61.08;26.23;;;;;;;;;;8395872;28;20044;-77
2021/12/23 23:57:23;;;;;;;64.38;30.73;;;;;;;;;;8395506;28;20049;-77
